createdAt,value
2022-08-17T00:00:34.523Z,99896.81
2022-08-17T00:02:41.100Z,99897.66
2022-08-17T00:04:50.460Z,99899.09
2022-08-17T00:06:53.731Z,99894.00
2022-08-17T00:09:00.107Z,99888.63
2022-08-17T00:11:12.777Z,99892.88
2022-08-17T00:13:18.834Z,99890.63
2022-08-17T00:15:23.839Z,99887.66
2022-08-17T00:17:27.016Z,99892.31
2022-08-17T00:19:29.979Z,99890.34
2022-08-17T00:22:00.006Z,99885.53
2022-08-17T00:23:58.225Z,99887.78
2022-08-17T00:26:01.135Z,99887.50
2022-08-17T00:28:04.294Z,99892.19
2022-08-17T00:30:09.710Z,99888.09
2022-08-17T00:33:15.012Z,99883.97
2022-08-17T00:34:35.725Z,99874.78
2022-08-17T00:36:38.734Z,99877.91
2022-08-17T00:38:42.106Z,99877.78
2022-08-17T00:40:49.410Z,99872.69
2022-08-17T00:42:54.917Z,99870.00
2022-08-17T00:44:58.181Z,99870.59
2022-08-17T00:47:01.133Z,99870.72
2022-08-17T00:49:04.887Z,99870.31
2022-08-17T00:51:20.094Z,99871.00
2022-08-17T00:53:23.317Z,99867.75
2022-08-17T00:55:26.619Z,99864.06
2022-08-17T00:57:34.975Z,99860.09
2022-08-17T00:59:41.582Z,99857.69
2022-08-17T01:01:44.985Z,99861.63
2022-08-17T01:03:47.995Z,99858.66
2022-08-17T01:05:52.540Z,99854.28
2022-08-17T01:07:56.261Z,99848.75
2022-08-17T01:09:59.998Z,99853.44
2022-08-17T01:12:03.114Z,99842.53
2022-08-17T01:14:08.879Z,99842.22
2022-08-17T01:16:17.404Z,99839.69
2022-08-17T01:18:20.511Z,99841.72
2022-08-17T01:20:23.904Z,99845.91
2022-08-17T01:22:28.314Z,99842.78
2022-08-17T01:24:31.635Z,99844.34
2022-08-17T01:26:39.224Z,99850.72
2022-08-17T01:28:53.385Z,99849.88
2022-08-17T01:31:00.782Z,99848.03
2022-08-17T01:33:04.297Z,99857.78
2022-08-17T01:35:08.755Z,99853.41
2022-08-17T01:37:12.446Z,99845.34
2022-08-17T01:39:30.128Z,99845.47
2022-08-17T01:41:33.230Z,99843.66
2022-08-17T01:43:39.865Z,99845.34
2022-08-17T01:45:46.074Z,99850.19
2022-08-17T01:47:49.364Z,99842.53
2022-08-17T01:49:52.293Z,99848.91
2022-08-17T01:51:55.396Z,99845.22
2022-08-17T01:54:00.424Z,99842.13
2022-08-17T01:56:12.875Z,99839.72
2022-08-17T01:58:16.052Z,99849.78
2022-08-17T02:00:18.979Z,99847.38
2022-08-17T02:02:30.316Z,99849.34
2022-08-17T02:04:35.138Z,99853.31
2022-08-17T02:06:52.422Z,99858.00
2022-08-17T02:09:02.835Z,99846.69
2022-08-17T02:11:19.000Z,99854.91
2022-08-17T02:13:23.351Z,99855.88
2022-08-17T02:15:26.485Z,99858.41
2022-08-17T02:17:29.935Z,99864.63
2022-08-17T02:19:32.928Z,99852.47
2022-08-17T02:21:36.174Z,99855.31
2022-08-17T02:23:42.436Z,99851.09
2022-08-17T02:25:47.700Z,99842.88
2022-08-17T02:27:51.942Z,99844.25
2022-08-17T02:29:54.925Z,99845.84
2022-08-17T02:31:58.507Z,99848.38
2022-08-17T02:34:04.493Z,99845.97
2022-08-17T02:36:14.304Z,99853.16
2022-08-17T02:38:17.414Z,99845.69
2022-08-17T02:40:36.269Z,99848.53
2022-08-17T02:42:41.160Z,99847.53
2022-08-17T02:44:45.476Z,99851.06
2022-08-17T02:46:48.440Z,99852.06
2022-08-17T02:48:51.362Z,99853.88
2022-08-17T02:50:54.263Z,99850.50
2022-08-17T02:53:01.655Z,99842.88
2022-08-17T02:55:06.251Z,99850.34
2022-08-17T02:57:09.210Z,99856.16
2022-08-17T02:59:12.112Z,99844.56
2022-08-17T03:01:17.510Z,99853.31
2022-08-17T03:03:20.830Z,99851.50
2022-08-17T03:05:25.828Z,99839.19
2022-08-17T03:07:29.398Z,99842.00
2022-08-17T03:09:32.819Z,99845.13
2022-08-17T03:11:35.766Z,99845.13
2022-08-17T03:13:39.405Z,99842.88
2022-08-17T03:15:45.098Z,99843.72
2022-08-17T03:17:49.557Z,99848.38
2022-08-17T03:19:52.466Z,99840.06
2022-08-17T03:21:55.612Z,99847.66
2022-08-17T03:23:58.663Z,99846.81
2022-08-17T03:26:02.248Z,99851.31
2022-08-17T03:28:06.237Z,99841.84
2022-08-17T03:30:11.253Z,99844.53
2022-08-17T03:32:15.806Z,99848.22
2022-08-17T03:34:20.217Z,99841.69
2022-08-17T03:36:23.644Z,99837.19
2022-08-17T03:38:27.039Z,99838.72
2022-08-17T03:40:34.574Z,99830.81
2022-08-17T03:42:54.823Z,99842.56
2022-08-17T03:44:59.203Z,99844.97
2022-08-17T03:47:18.831Z,99844.97
2022-08-17T03:49:40.331Z,99848.22
2022-08-17T03:52:01.101Z,99844.09
2022-08-17T03:54:21.842Z,99849.34
2022-08-17T03:56:42.171Z,99850.19
2022-08-17T03:58:45.118Z,99848.22
2022-08-17T04:00:48.347Z,99845.53
2022-08-17T04:02:51.925Z,99851.19
2022-08-17T04:04:56.493Z,99845.09
2022-08-17T04:06:59.431Z,99844.09
2022-08-17T04:09:02.434Z,99841.16
2022-08-17T04:11:12.578Z,99846.25
2022-08-17T04:13:15.568Z,99846.97
2022-08-17T04:15:27.415Z,99847.22
2022-08-17T04:17:30.750Z,99847.91
2022-08-17T04:19:33.680Z,99839.44
2022-08-17T04:21:38.149Z,99846.38
2022-08-17T04:23:41.382Z,99849.88
2022-08-17T04:25:46.206Z,99855.53
2022-08-17T04:27:49.390Z,99858.22
2022-08-17T04:29:55.553Z,99858.22
2022-08-17T04:31:59.125Z,99867.97
2022-08-17T04:34:02.562Z,99858.66
2022-08-17T04:36:16.557Z,99866.41
2022-08-17T04:38:22.733Z,99862.97
2022-08-17T04:40:44.844Z,99859.56
2022-08-17T04:43:01.703Z,99867.63
2022-08-17T04:45:05.673Z,99870.31
2022-08-17T04:47:10.607Z,99872.69
2022-08-17T04:49:16.366Z,99867.19
2022-08-17T04:51:21.560Z,99869.59
2022-08-17T04:53:25.918Z,99872.97
2022-08-17T04:55:29.034Z,99874.66
2022-08-17T04:57:39.515Z,99872.25
2022-08-17T04:59:44.783Z,99877.63
2022-08-17T05:01:50.122Z,99875.53
2022-08-17T05:03:53.955Z,99872.41
2022-08-17T05:05:56.970Z,99874.94
2022-08-17T05:08:01.791Z,99880.03
2022-08-17T05:10:06.876Z,99889.06
2022-08-17T05:12:09.916Z,99885.75
2022-08-17T05:14:13.050Z,99881.94
2022-08-17T05:16:15.990Z,99885.75
2022-08-17T05:18:19.148Z,99881.25
2022-08-17T05:20:22.473Z,99884.66
2022-08-17T05:22:25.545Z,99885.81
2022-08-17T05:24:38.941Z,99886.78
2022-08-17T05:26:47.765Z,99886.38
2022-08-17T05:28:52.513Z,99884.13
2022-08-17T05:30:58.731Z,99882.16
2022-08-17T05:33:03.647Z,99878.47
2022-08-17T05:35:07.670Z,99881.28
2022-08-17T05:37:10.607Z,99882.44
2022-08-17T05:39:16.439Z,99881.00
2022-08-17T05:41:20.642Z,99872.81
2022-08-17T05:43:26.328Z,99875.34
2022-08-17T05:45:54.592Z,99875.66
2022-08-17T05:47:52.562Z,99878.06
2022-08-17T05:49:55.960Z,99868.84
2022-08-17T05:52:20.085Z,99871.56
2022-08-17T05:54:40.539Z,99872.44
2022-08-17T05:56:59.402Z,99870.97
2022-08-17T05:59:09.625Z,99862.09
2022-08-17T06:01:21.905Z,99864.47
2022-08-17T06:03:42.859Z,99856.97
2022-08-17T06:05:55.452Z,99850.94
2022-08-17T06:08:04.765Z,99840.75
2022-08-17T06:10:14.829Z,99839.88
2022-08-17T06:12:34.364Z,99840.28
2022-08-17T06:14:50.433Z,99840.69
2022-08-17T06:16:56.467Z,99841.00
2022-08-17T06:19:02.090Z,99840.41
2022-08-17T06:21:16.961Z,99841.91
2022-08-17T06:23:32.282Z,99848.41
2022-08-17T06:25:38.489Z,99847.66
2022-08-17T06:27:45.004Z,99847.28
2022-08-17T06:29:53.630Z,99840.91
2022-08-17T06:31:57.527Z,99841.47
2022-08-17T06:34:03.803Z,99839.06
2022-08-17T06:36:25.026Z,99839.81
2022-08-17T06:38:38.575Z,99834.91
2022-08-17T06:40:53.467Z,99842.50
2022-08-17T06:43:06.429Z,99852.22
2022-08-17T06:45:15.996Z,99856.97
2022-08-17T06:47:28.401Z,99852.66
2022-08-17T06:49:41.261Z,99845.28
2022-08-17T06:51:48.518Z,99844.28
2022-08-17T06:53:59.394Z,99848.63
2022-08-17T06:56:12.645Z,99846.44
2022-08-17T06:58:16.992Z,99844.72
2022-08-17T07:00:24.288Z,99847.19
2022-08-17T07:02:51.474Z,99842.88
2022-08-17T07:04:56.291Z,99846.34
2022-08-17T07:07:22.290Z,99843.72
2022-08-17T07:09:29.732Z,99841.31
2022-08-17T07:11:35.547Z,99849.50
2022-08-17T07:13:51.537Z,99845.13
2022-08-17T07:16:15.980Z,99849.31
2022-08-17T07:18:18.935Z,99844.59
2022-08-17T07:20:23.427Z,99846.00
2022-08-17T07:22:30.416Z,99847.38
2022-08-17T07:24:57.238Z,99843.63
2022-08-17T07:27:16.467Z,99855.38
2022-08-17T07:29:19.917Z,99851.06
2022-08-17T07:31:25.284Z,99846.56
2022-08-17T07:33:30.180Z,99854.38
2022-08-17T07:35:41.212Z,99851.78
2022-08-17T07:37:51.011Z,99855.41
2022-08-17T07:39:59.619Z,99849.66
2022-08-17T07:42:18.553Z,99847.69
2022-08-17T07:44:21.561Z,99854.16
2022-08-17T07:46:44.871Z,99858.06
2022-08-17T07:48:49.780Z,99855.03
2022-08-17T07:50:54.023Z,99851.16
2022-08-17T07:52:57.164Z,99849.84
2022-08-17T07:55:00.518Z,99853.97
2022-08-17T07:57:10.215Z,99846.63
2022-08-17T07:59:23.201Z,99853.16
2022-08-17T08:01:39.645Z,99849.09
2022-08-17T08:03:52.443Z,99839.47
2022-08-17T08:06:01.968Z,99847.75
2022-08-17T08:10:28.660Z,99845.66
2022-08-17T08:12:34.898Z,99849.81
2022-08-17T08:14:39.656Z,99846.09
2022-08-17T08:16:57.393Z,99854.53
2022-08-17T08:19:01.891Z,99841.16
2022-08-17T08:21:17.676Z,99840.72
2022-08-17T08:23:32.836Z,99851.66
2022-08-17T08:25:45.242Z,99851.34
2022-08-17T08:27:58.531Z,99858.66
2022-08-17T08:30:07.054Z,99864.34
2022-08-17T08:32:20.148Z,99860.69
2022-08-17T08:35:00.580Z,99859.50
2022-08-17T08:37:15.386Z,99854.00
2022-08-17T08:39:24.565Z,99847.38
2022-08-17T08:41:37.923Z,99850.75
2022-08-17T08:43:50.851Z,99853.47
2022-08-17T08:46:01.545Z,99848.97
2022-08-17T08:48:45.806Z,99853.31
2022-08-17T08:50:43.793Z,99868.25
2022-08-17T08:52:59.185Z,99859.09
2022-08-17T08:55:07.709Z,99867.06
2022-08-17T08:57:31.115Z,99863.06
2022-08-17T08:59:44.572Z,99862.25
2022-08-17T09:02:00.881Z,99860.97
2022-08-17T09:04:25.035Z,99855.31
2022-08-17T09:06:40.415Z,99864.94
2022-08-17T09:08:57.036Z,99873.56
2022-08-17T09:11:04.302Z,99868.53
2022-08-17T09:13:11.869Z,99856.75
2022-08-17T09:15:18.424Z,99849.56
2022-08-17T09:17:23.130Z,99849.59
2022-08-17T09:19:35.370Z,99849.97
2022-08-17T09:21:48.077Z,99857.19
2022-08-17T09:24:00.064Z,99856.53
2022-08-17T09:26:17.976Z,99853.22
2022-08-17T09:28:24.847Z,99850.50
2022-08-17T09:30:29.294Z,99853.13
2022-08-17T09:32:35.316Z,99860.31
2022-08-17T09:34:43.523Z,99852.56
2022-08-17T09:36:51.652Z,99861.16
2022-08-17T09:38:59.271Z,99855.03
2022-08-17T09:41:17.665Z,99861.59
2022-08-17T09:43:27.326Z,99855.63
2022-08-17T09:45:33.208Z,99859.53
2022-08-17T09:47:46.453Z,99857.44
2022-08-17T09:49:54.265Z,99865.16
2022-08-17T09:52:01.061Z,99866.56
2022-08-17T09:54:37.142Z,99868.97
2022-08-17T09:56:46.165Z,99874.41
2022-08-17T09:59:05.197Z,99864.91
2022-08-17T10:01:23.155Z,99864.25
2022-08-17T10:03:34.285Z,99855.97
2022-08-17T10:05:46.336Z,99854.50
2022-08-17T10:07:56.007Z,99860.31
2022-08-17T10:10:02.546Z,99865.69
2022-08-17T10:12:21.387Z,99860.06
2022-08-17T10:14:37.747Z,99859.25
2022-08-17T10:16:55.865Z,99861.19
2022-08-17T10:19:08.794Z,99860.72
2022-08-17T10:21:35.064Z,99864.03
2022-08-17T10:23:55.154Z,99863.69
2022-08-17T10:26:20.111Z,99857.81
2022-08-17T10:28:29.479Z,99861.19
2022-08-17T10:30:34.900Z,99858.38
2022-08-17T10:32:42.106Z,99862.69
2022-08-17T10:35:04.892Z,99869.38
2022-08-17T10:37:21.637Z,99872.66
2022-08-17T10:39:31.684Z,99882.44
2022-08-17T10:41:40.835Z,99876.72
2022-08-17T10:44:30.627Z,99881.06
2022-08-17T10:46:30.821Z,99890.16
2022-08-17T10:48:37.357Z,99881.34
2022-08-17T10:50:59.604Z,99881.97
2022-08-17T10:53:04.426Z,99889.06
2022-08-17T10:55:14.545Z,99878.72
2022-08-17T10:57:37.992Z,99885.59
2022-08-17T10:59:54.143Z,99887.66
2022-08-17T11:02:10.464Z,99885.97
2022-08-17T11:04:26.403Z,99893.91
2022-08-17T11:06:36.400Z,99906.19
2022-08-17T11:09:06.759Z,99905.44
2022-08-17T11:11:35.861Z,99905.22
2022-08-17T11:13:44.981Z,99903.03
2022-08-17T11:15:59.015Z,99904.44
2022-08-17T11:18:12.440Z,99905.50
2022-08-17T11:20:38.052Z,99903.06
2022-08-17T11:23:07.645Z,99904.81
2022-08-17T11:25:15.420Z,99908.44
2022-08-17T11:27:26.715Z,99913.59
2022-08-17T11:29:35.140Z,99911.88
2022-08-17T11:31:42.633Z,99910.66
2022-08-17T11:33:54.628Z,99917.06
2022-08-17T11:36:13.750Z,99925.00
2022-08-17T11:38:19.867Z,99917.88
2022-08-17T11:40:46.396Z,99924.13
2022-08-17T11:43:08.798Z,99923.06
2022-08-17T11:45:32.375Z,99919.00
2022-08-17T11:48:26.113Z,99927.06
2022-08-17T11:50:50.258Z,99921.25
2022-08-17T11:52:53.232Z,99921.91
2022-08-17T11:55:07.722Z,99923.19
2022-08-17T11:58:00.945Z,99913.22
2022-08-17T12:00:10.295Z,99917.50
2022-08-17T12:02:49.026Z,99913.41
2022-08-17T12:05:04.844Z,99915.63
2022-08-17T12:07:19.455Z,99920.28
2022-08-17T12:09:25.075Z,99919.88
2022-08-17T12:11:58.767Z,99931.81
2022-08-17T12:13:58.343Z,99920.44
2022-08-17T12:16:01.689Z,99917.78
2022-08-17T12:18:05.552Z,99917.91
2022-08-17T12:20:19.701Z,99918.59
2022-08-17T12:22:26.538Z,99920.13
2022-08-17T12:24:47.275Z,99918.66
2022-08-17T12:26:54.902Z,99914.22
2022-08-17T12:29:01.580Z,99912.84
2022-08-17T12:31:16.765Z,99917.22
2022-08-17T12:33:25.507Z,99905.41
2022-08-17T12:35:35.141Z,99905.38
2022-08-17T12:37:46.723Z,99901.69
2022-08-17T12:39:53.393Z,99897.03
2022-08-17T12:42:02.182Z,99899.06
2022-08-17T12:44:14.133Z,99905.13
2022-08-17T12:46:19.772Z,99899.81
2022-08-17T12:48:24.477Z,99899.56
2022-08-17T12:50:28.638Z,99911.53
2022-08-17T12:52:33.033Z,99905.06
2022-08-17T12:54:41.988Z,99892.44
2022-08-17T12:56:46.461Z,99896.56
2022-08-17T12:58:54.411Z,99898.03
2022-08-17T13:01:04.234Z,99897.22
2022-08-17T13:03:09.594Z,99889.25
2022-08-17T13:05:24.375Z,99882.88
2022-08-17T13:07:33.282Z,99882.44
2022-08-17T13:09:40.284Z,99877.47
2022-08-17T13:11:49.628Z,99874.31
2022-08-17T13:13:55.054Z,99878.63
2022-08-17T13:16:01.482Z,99868.50
2022-08-17T13:18:07.756Z,99866.28
2022-08-17T13:20:15.708Z,99872.25
2022-08-17T13:22:21.355Z,99875.81
2022-08-17T13:24:27.115Z,99883.03
2022-08-17T13:26:33.799Z,99875.25
2022-08-17T13:28:38.036Z,99879.06
2022-08-17T13:30:40.943Z,99870.44
2022-08-17T13:32:47.183Z,99874.38
2022-08-17T13:35:11.983Z,99872.34
2022-08-17T13:37:26.995Z,99873.09
2022-08-17T13:39:29.970Z,99871.94
2022-08-17T13:41:34.734Z,99871.94
2022-08-17T13:43:45.601Z,99873.41
2022-08-17T13:45:53.368Z,99879.06
2022-08-17T13:48:08.401Z,99877.78
2022-08-17T13:50:21.147Z,99871.91
2022-08-17T13:52:36.188Z,99868.50
2022-08-17T13:54:41.314Z,99868.44
2022-08-17T13:56:55.711Z,99874.13
2022-08-17T13:59:01.289Z,99871.97
2022-08-17T14:01:36.675Z,99882.44
2022-08-17T14:03:41.074Z,99873.78
2022-08-17T14:05:47.612Z,99874.03
2022-08-17T14:07:56.368Z,99870.41
2022-08-17T14:10:01.455Z,99868.00
2022-08-17T14:12:06.499Z,99870.47
2022-08-17T14:14:09.448Z,99865.06
2022-08-17T14:16:12.364Z,99871.81
2022-08-17T14:18:17.743Z,99868.78
2022-08-17T14:20:24.615Z,99869.53
2022-08-17T14:22:30.516Z,99864.91
2022-08-17T14:24:35.361Z,99867.53
2022-08-17T14:26:38.397Z,99876.47
2022-08-17T14:28:43.027Z,99874.16
2022-08-17T14:30:59.132Z,99884.00
2022-08-17T14:33:02.339Z,99871.59
2022-08-17T14:35:06.664Z,99873.91
2022-08-17T14:37:11.180Z,99859.38
2022-08-17T14:39:15.126Z,99856.66
2022-08-17T14:41:22.010Z,99861.09
2022-08-17T14:43:26.047Z,99857.03
2022-08-17T14:45:32.119Z,99856.59
2022-08-17T14:47:38.411Z,99859.13
2022-08-17T14:49:42.163Z,99849.25
2022-08-17T14:51:45.045Z,99853.22
2022-08-17T14:53:49.552Z,99837.69
2022-08-17T14:55:52.506Z,99843.59
2022-08-17T14:57:55.438Z,99838.53
2022-08-17T14:59:59.219Z,99842.94
2022-08-17T15:02:02.712Z,99835.13
2022-08-17T15:04:06.237Z,99841.59
2022-08-17T15:06:15.292Z,99840.56
2022-08-17T15:08:19.605Z,99834.25
2022-08-17T15:10:25.845Z,99838.72
2022-08-17T15:12:32.685Z,99834.13
2022-08-17T15:14:37.213Z,99833.94
2022-08-17T15:16:40.246Z,99831.63
2022-08-17T15:18:43.169Z,99840.50
2022-08-17T15:20:48.613Z,99834.00
2022-08-17T15:22:55.102Z,99839.44
2022-08-17T15:24:58.466Z,99832.06
2022-08-17T15:27:02.756Z,99836.72
2022-08-17T15:29:05.737Z,99834.88
2022-08-17T15:31:31.827Z,99833.44
2022-08-17T15:33:35.472Z,99837.59
2022-08-17T15:35:38.483Z,99833.31
2022-08-17T15:37:41.865Z,99831.53
2022-08-17T15:39:44.872Z,99835.00
2022-08-17T15:41:58.517Z,99826.66
2022-08-17T15:44:03.267Z,99829.41
2022-08-17T15:48:41.324Z,99835.38
2022-08-17T15:50:45.163Z,99838.53
2022-08-17T15:52:48.158Z,99838.50
2022-08-17T15:54:52.610Z,99831.25
2022-08-17T15:56:55.587Z,99835.75
2022-08-17T15:58:59.303Z,99839.03
2022-08-17T16:01:14.882Z,99836.16
2022-08-17T16:04:04.131Z,99824.44
2022-08-17T16:05:44.725Z,99829.38
2022-08-17T16:07:49.664Z,99827.03
2022-08-17T16:09:52.714Z,99822.81
2022-08-17T16:11:56.458Z,99825.88
2022-08-17T16:13:59.672Z,99829.41
2022-08-17T16:16:05.480Z,99831.47
2022-08-17T16:18:08.445Z,99839.41
2022-08-17T16:20:20.108Z,99833.69
2022-08-17T16:22:32.370Z,99838.31
2022-08-17T16:24:37.025Z,99829.56
2022-08-17T16:26:40.006Z,99848.84
2022-08-17T16:28:43.319Z,99855.44
2022-08-17T16:30:46.431Z,99849.97
2022-08-17T16:32:51.788Z,99848.56
2022-08-17T16:34:55.141Z,99848.47
2022-08-17T16:36:58.158Z,99851.63
2022-08-17T16:39:01.472Z,99846.25
2022-08-17T16:41:04.699Z,99852.81
2022-08-17T16:43:10.544Z,99854.22
2022-08-17T16:45:16.914Z,99850.50
2022-08-17T16:47:20.373Z,99856.13
2022-08-17T16:49:37.234Z,99863.44
2022-08-17T16:51:41.470Z,99860.94
2022-08-17T16:53:44.481Z,99859.41
2022-08-17T16:55:51.884Z,99859.59
2022-08-17T16:57:54.794Z,99869.47
2022-08-17T16:59:57.982Z,99869.25
2022-08-17T17:02:05.039Z,99871.16
2022-08-17T17:04:10.332Z,99881.16
2022-08-17T17:06:30.032Z,99875.81
2022-08-17T17:08:40.663Z,99875.81
2022-08-17T17:10:47.362Z,99885.84
2022-08-17T17:13:01.244Z,99885.75
2022-08-17T17:15:07.612Z,99889.22
2022-08-17T17:17:14.999Z,99883.53
2022-08-17T17:19:34.569Z,99884.34
2022-08-17T17:21:46.308Z,99901.88
2022-08-17T17:23:54.801Z,99905.78
2022-08-17T17:26:07.058Z,99902.84
2022-08-17T17:28:22.380Z,99896.53
2022-08-17T17:30:28.157Z,99904.97
2022-08-17T17:32:37.835Z,99906.16
2022-08-17T17:34:45.752Z,99913.66
2022-08-17T17:36:57.554Z,99912.16
2022-08-17T17:39:05.788Z,99915.47
2022-08-17T17:41:34.087Z,99919.56
2022-08-17T17:43:40.307Z,99914.78
2022-08-17T17:45:46.150Z,99914.63
2022-08-17T17:47:49.764Z,99925.34
2022-08-17T17:49:52.766Z,99924.47
2022-08-17T17:52:10.125Z,99927.09
2022-08-17T17:54:28.102Z,99930.50
2022-08-17T17:56:43.963Z,99930.50
2022-08-17T17:58:53.824Z,99934.56
2022-08-17T18:01:08.242Z,99933.66
2022-08-17T18:03:23.479Z,99946.88
2022-08-17T18:05:49.329Z,99956.03
2022-08-17T18:07:57.434Z,99957.47
2022-08-17T18:10:19.491Z,99971.69
2022-08-17T18:12:37.309Z,99969.00
2022-08-17T18:14:58.276Z,99970.13
2022-08-17T18:17:02.142Z,99969.16
2022-08-17T18:19:07.159Z,99965.94
2022-08-17T18:21:44.352Z,99970.53
2022-08-17T18:23:53.572Z,99975.47
2022-08-17T18:25:58.665Z,99972.44
2022-08-17T18:28:01.638Z,99980.25
2022-08-17T18:30:24.824Z,99987.38
2022-08-17T18:32:37.239Z,99992.44
2022-08-17T18:34:48.468Z,99990.78
2022-08-17T18:36:52.625Z,99991.16
2022-08-17T18:39:11.426Z,99980.31
2022-08-17T18:41:30.376Z,99984.19
2022-08-17T18:43:44.495Z,99990.63
2022-08-17T18:45:58.083Z,99997.22
2022-08-17T18:48:01.014Z,99984.56
2022-08-17T18:50:22.617Z,99986.91
2022-08-17T18:52:28.789Z,99999.09
2022-08-17T18:54:34.263Z,99993.81
2022-08-17T18:56:38.137Z,100004.13
2022-08-17T18:58:41.083Z,99998.16
2022-08-17T19:00:49.036Z,99995.13
2022-08-17T19:02:54.748Z,99997.16
2022-08-17T19:05:01.903Z,100006.09
2022-08-17T19:07:29.110Z,100004.88
2022-08-17T19:09:35.918Z,100001.50
2022-08-17T19:11:39.891Z,100006.53
2022-08-17T19:13:45.656Z,100015.84
2022-08-17T19:16:14.491Z,100017.84
2022-08-17T19:18:45.282Z,100023.00
2022-08-17T19:20:53.063Z,100028.38
2022-08-17T19:23:03.820Z,100033.44
2022-08-17T19:25:15.196Z,100034.88
2022-08-17T19:27:23.216Z,100041.31
2022-08-17T19:29:31.238Z,100045.34
2022-08-17T19:31:37.162Z,100048.94
2022-08-17T19:33:40.159Z,100056.97
2022-08-17T19:35:50.686Z,100053.19
2022-08-17T19:38:02.681Z,100058.13
2022-08-17T19:40:35.051Z,100050.16
2022-08-17T19:42:50.200Z,100058.25
2022-08-17T19:44:58.822Z,100064.66
2022-08-17T19:47:07.758Z,100057.88
2022-08-17T19:49:15.777Z,100058.19
2022-08-17T19:51:41.831Z,100052.59
2022-08-17T19:54:05.031Z,100055.13
2022-08-17T19:56:35.360Z,100058.41
2022-08-17T19:58:48.789Z,100064.84
2022-08-17T20:00:55.679Z,100056.69
2022-08-17T20:03:06.175Z,100066.97
2022-08-17T20:05:14.545Z,100070.50
2022-08-17T20:07:21.886Z,100078.22
2022-08-17T20:09:33.604Z,100076.22
2022-08-17T20:11:43.661Z,100063.28
2022-08-17T20:14:03.710Z,100068.84
2022-08-17T20:16:09.997Z,100071.72
2022-08-17T20:18:22.682Z,100074.31
2022-08-17T20:20:43.750Z,100077.25
2022-08-17T20:22:55.390Z,100090.09
2022-08-17T20:25:09.910Z,100087.00
2022-08-17T20:27:17.958Z,100098.25
2022-08-17T20:29:37.586Z,100101.22
2022-08-17T20:31:46.777Z,100102.53
2022-08-17T20:33:50.642Z,100106.47
2022-08-17T20:36:27.217Z,100107.34
2022-08-17T20:38:41.423Z,100107.47
2022-08-17T20:41:12.558Z,100104.69
2022-08-17T20:43:55.255Z,100099.38
2022-08-17T20:46:11.742Z,100111.75
2022-08-17T20:48:36.871Z,100112.28
2022-08-17T20:50:44.309Z,100124.38
2022-08-17T20:52:54.814Z,100122.84
2022-08-17T20:54:58.490Z,100122.56
2022-08-17T20:57:02.005Z,100126.94
2022-08-17T20:59:09.246Z,100129.63
2022-08-17T21:05:34.746Z,100134.72
2022-08-17T21:07:55.782Z,100133.34
2022-08-17T21:10:16.589Z,100133.34
2022-08-17T21:12:41.410Z,100132.06
2022-08-17T21:14:59.697Z,100134.75
2022-08-17T21:17:17.243Z,100136.03
2022-08-17T21:19:31.272Z,100135.88
2022-08-17T21:21:42.456Z,100139.00
2022-08-17T21:24:11.895Z,100129.25
2022-08-17T21:26:29.656Z,100133.03
2022-08-17T21:28:59.933Z,100136.75
2022-08-17T21:31:09.188Z,100134.44
2022-08-17T21:33:25.015Z,100141.13
2022-08-17T21:35:30.579Z,100136.47
2022-08-17T21:37:40.703Z,100139.16
2022-08-17T21:39:48.115Z,100141.69
2022-08-17T21:41:54.099Z,100138.28
2022-08-17T21:44:05.292Z,100139.81
2022-08-17T21:46:12.947Z,100142.94
2022-08-17T21:48:18.285Z,100147.72
2022-08-17T21:50:24.645Z,100144.59
2022-08-17T21:52:28.423Z,100152.50
2022-08-17T21:54:35.780Z,100152.94
2022-08-17T21:56:42.204Z,100169.59
2022-08-17T21:58:48.536Z,100174.66
2022-08-17T22:01:10.446Z,100182.69
2022-08-17T22:03:23.972Z,100182.91
2022-08-17T22:05:33.126Z,100191.88
2022-08-17T22:07:40.105Z,100190.19
2022-08-17T22:09:45.122Z,100200.75
2022-08-17T22:11:55.452Z,100203.16
2022-08-17T22:14:05.567Z,100200.34
2022-08-17T22:16:15.648Z,100200.06
2022-08-17T22:18:33.234Z,100203.94
2022-08-17T22:20:36.664Z,100202.25
2022-08-17T22:22:56.733Z,100199.25
2022-08-17T22:25:02.992Z,100193.31
2022-08-17T22:27:11.118Z,100198.81
2022-08-17T22:29:53.335Z,100199.81
2022-08-17T22:32:00.876Z,100204.69
2022-08-17T22:34:16.222Z,100217.94
2022-08-17T22:36:29.028Z,100223.56
2022-08-17T22:38:33.538Z,100231.63
2022-08-17T22:40:37.084Z,100225.53
2022-08-17T22:42:47.301Z,100223.94
2022-08-17T22:44:51.934Z,100219.56
2022-08-17T22:46:59.037Z,100211.50
2022-08-17T22:49:02.044Z,100220.44
2022-08-17T22:51:12.555Z,100220.97
2022-08-17T22:53:35.418Z,100232.53
2022-08-17T22:56:07.779Z,100235.66
2022-08-17T22:58:31.410Z,100240.31
2022-08-17T23:00:39.159Z,100244.34
2022-08-17T23:03:10.546Z,100242.94
2022-08-17T23:05:21.670Z,100236.97
2022-08-17T23:07:25.099Z,100233.47
2022-08-17T23:09:29.308Z,100237.78
2022-08-17T23:11:36.721Z,100242.81
2022-08-17T23:13:55.005Z,100247.41
2022-08-17T23:15:58.150Z,100243.78
2022-08-17T23:18:04.665Z,100242.06
2022-08-17T23:20:12.058Z,100244.19
2022-08-17T23:22:15.187Z,100248.72
2022-08-17T23:24:21.874Z,100249.09
2022-08-17T23:26:26.881Z,100252.16
2022-08-17T23:28:29.883Z,100253.25
2022-08-17T23:30:37.218Z,100236.09
2022-08-17T23:32:53.740Z,100245.09
2022-08-17T23:34:59.126Z,100243.88
2022-08-17T23:37:02.738Z,100244.34
2022-08-17T23:39:06.254Z,100230.94
2022-08-17T23:41:13.722Z,100233.34
2022-08-17T23:43:24.801Z,100234.06
2022-08-17T23:45:28.873Z,100241.84
2022-08-17T23:47:33.259Z,100239.31
2022-08-17T23:49:37.457Z,100239.31
2022-08-17T23:51:42.522Z,100251.16
2022-08-17T23:53:47.993Z,100239.97
2022-08-17T23:56:10.234Z,100248.97
2022-08-17T23:58:14.281Z,100252.50
